Terminal Aerodrome Forecast
Issued by NWS Wakefield, VA

Home | Current Version | Previous Version | Text Only | Print | Product List | Glossary On
Versions: 1 2 3 4 5 6 7 8 9 10 11 12 13 14 15 16 17 18 19 20 21 22 23
231
FTUS41 KAKQ 261137
TAFSBY
TAF
KSBY 261137Z 2612/2712 30008KT 1/2SM -DZ FG OVC003
      TEMPO 2612/2614 1/4SM -DZ FG VV002
     FM261500 31007KT 4SM -DZ BR OVC004
     FM261800 29006KT P6SM OVC015
     FM262000 29006KT P6SM OVC025
     FM262300 VRB03KT P6SM BKN040=

USA.gov is the U.S. government's official web portal to all federal, state and local government web resources and services.